createdAt,value
2022-08-08T00:00:55.093Z,20.10
2022-08-08T00:05:09.592Z,20.00
2022-08-08T00:10:18.807Z,19.80
2022-08-08T00:15:56.978Z,19.70
2022-08-08T00:21:01.247Z,19.70
2022-08-08T00:26:12.912Z,19.70
2022-08-08T00:32:15.122Z,19.70
2022-08-08T00:36:45.470Z,19.50
2022-08-08T00:42:31.628Z,19.40
2022-08-08T00:48:02.033Z,19.30
2022-08-08T00:53:43.644Z,19.20
2022-08-08T00:59:44.722Z,19.10
2022-08-08T01:05:23.436Z,19.20
2022-08-08T01:10:50.866Z,19.20
2022-08-08T01:16:00.673Z,19.00
2022-08-08T01:22:10.292Z,19.20
2022-08-08T01:27:43.447Z,19.00
2022-08-08T01:33:23.990Z,18.90
2022-08-08T01:39:00.947Z,18.90
2022-08-08T01:44:31.159Z,18.90
2022-08-08T01:49:44.978Z,19.00
2022-08-08T01:56:28.799Z,18.80
2022-08-08T02:01:15.726Z,18.50
2022-08-08T02:06:43.279Z,18.60
2022-08-08T02:11:58.740Z,18.60
2022-08-08T02:17:36.771Z,18.80
2022-08-08T02:23:07.769Z,18.60
2022-08-08T02:28:38.287Z,18.40
2022-08-08T02:34:27.525Z,18.40
2022-08-08T02:39:59.878Z,18.50
2022-08-08T02:45:18.869Z,18.10
2022-08-08T02:50:55.670Z,18.30
2022-08-08T02:56:37.238Z,18.10
2022-08-08T03:02:20.454Z,18.10
2022-08-08T03:07:57.660Z,18.00
2022-08-08T03:15:53.646Z,17.80
2022-08-08T03:18:37.507Z,18.00
2022-08-08T03:23:57.465Z,17.50
2022-08-08T03:29:17.143Z,17.90
2022-08-08T03:34:26.452Z,17.90
2022-08-08T03:39:30.609Z,17.90
2022-08-08T03:44:47.835Z,17.90
2022-08-08T03:49:59.597Z,17.90
2022-08-08T03:55:55.159Z,18.00
2022-08-08T04:01:01.701Z,18.00
2022-08-08T04:06:07.378Z,17.60
2022-08-08T04:11:17.387Z,17.80
2022-08-08T04:16:23.243Z,17.70
2022-08-08T04:21:45.729Z,17.80
2022-08-08T04:26:57.294Z,17.50
2022-08-08T04:32:01.126Z,18.00
2022-08-08T04:37:04.285Z,17.70
2022-08-08T04:42:08.839Z,17.70
2022-08-08T04:47:14.975Z,17.60
2022-08-08T04:52:25.169Z,17.60
2022-08-08T04:57:28.115Z,17.50
2022-08-08T05:02:31.826Z,17.60
2022-08-08T05:07:42.096Z,17.60
2022-08-08T05:13:00.364Z,17.60
2022-08-08T05:18:05.283Z,17.70
2022-08-08T05:23:08.808Z,17.60
2022-08-08T05:28:12.961Z,17.70
2022-08-08T05:33:17.920Z,18.00
2022-08-08T05:38:30.574Z,17.50
2022-08-08T05:44:03.650Z,18.20
2022-08-08T05:49:10.331Z,18.30
2022-08-08T05:54:27.677Z,18.70
2022-08-08T05:59:59.426Z,19.00
2022-08-08T06:05:34.323Z,19.40
2022-08-08T06:10:38.532Z,19.70
2022-08-08T06:15:50.840Z,20.00
2022-08-08T06:20:58.558Z,20.00
2022-08-08T06:26:38.854Z,20.70
2022-08-08T06:31:52.496Z,21.10
2022-08-08T06:37:02.243Z,21.30
2022-08-08T06:42:29.398Z,21.60
2022-08-08T06:47:52.422Z,22.20
2022-08-08T06:53:14.299Z,22.30
2022-08-08T06:58:30.455Z,22.30
2022-08-08T07:04:40.117Z,22.80
2022-08-08T07:09:59.765Z,23.10
2022-08-08T07:15:15.382Z,23.30
2022-08-08T07:20:45.783Z,23.20
2022-08-08T07:25:54.847Z,23.70
2022-08-08T07:30:59.659Z,23.80
2022-08-08T07:36:07.143Z,24.10
2022-08-08T07:41:16.722Z,24.30
2022-08-08T07:46:30.355Z,24.40
2022-08-08T07:51:52.809Z,24.30
2022-08-08T07:57:19.758Z,24.70
2022-08-08T08:02:33.180Z,24.50
2022-08-08T08:07:45.792Z,25.20
2022-08-08T08:12:57.105Z,25.30
2022-08-08T08:18:03.282Z,25.50
2022-08-08T08:23:06.102Z,25.70
2022-08-08T08:28:09.517Z,25.80
2022-08-08T08:33:13.121Z,25.80
2022-08-08T08:38:18.335Z,26.30
2022-08-08T08:43:26.700Z,26.50
2022-08-08T08:48:32.925Z,26.70
2022-08-08T08:53:56.248Z,27.10
2022-08-08T08:59:05.337Z,27.20
2022-08-08T09:04:31.146Z,27.40
2022-08-08T09:09:47.665Z,27.60
2022-08-08T09:14:55.526Z,27.80
2022-08-08T09:21:57.057Z,28.00
2022-08-08T09:25:23.561Z,28.10
2022-08-08T09:30:43.787Z,28.30
2022-08-08T09:35:53.253Z,28.50
2022-08-08T09:41:05.465Z,28.60
2022-08-08T09:46:11.085Z,28.80
2022-08-08T09:51:28.121Z,29.00
2022-08-08T09:56:41.394Z,29.20
2022-08-08T10:02:00.241Z,29.40
2022-08-08T10:07:09.581Z,29.60
2022-08-08T10:12:25.992Z,29.70
2022-08-08T10:18:05.312Z,29.80
2022-08-08T10:23:07.620Z,30.10
2022-08-08T10:28:17.252Z,30.20
2022-08-08T10:33:38.195Z,30.00
2022-08-08T10:38:58.080Z,30.40
2022-08-08T10:44:01.202Z,30.50
2022-08-08T10:49:04.710Z,30.70
2022-08-08T10:54:07.965Z,30.90
2022-08-08T10:59:12.180Z,31.10
2022-08-08T11:04:17.157Z,31.20
2022-08-08T11:09:32.123Z,31.40
2022-08-08T11:14:34.952Z,31.60
2022-08-08T11:19:37.271Z,31.80
2022-08-08T11:24:40.962Z,31.80
2022-08-08T11:29:58.253Z,31.90
2022-08-08T11:35:33.670Z,32.10
2022-08-08T11:40:34.849Z,32.30
2022-08-08T11:46:06.933Z,32.50
2022-08-08T11:51:29.564Z,32.80
2022-08-08T11:56:35.021Z,32.70
2022-08-08T12:01:38.440Z,33.30
2022-08-08T12:06:40.817Z,33.50
2022-08-08T12:11:49.434Z,33.70
2022-08-08T12:16:54.823Z,33.90
2022-08-08T12:22:08.862Z,34.10
2022-08-08T12:27:18.847Z,34.40
2022-08-08T12:32:31.552Z,34.60
2022-08-08T12:37:41.462Z,34.80
2022-08-08T12:42:48.005Z,35.10
2022-08-08T12:48:10.321Z,35.30
2022-08-08T12:53:30.121Z,35.50
2022-08-08T12:58:45.911Z,35.80
2022-08-08T13:03:52.140Z,36.00
2022-08-08T13:08:56.071Z,36.00
2022-08-08T13:14:03.780Z,36.10
2022-08-08T13:19:13.953Z,36.20
2022-08-08T13:24:38.595Z,36.40
2022-08-08T13:29:50.343Z,36.60
2022-08-08T13:34:58.057Z,36.80
2022-08-08T13:40:04.530Z,37.10
2022-08-08T13:45:10.027Z,37.40
2022-08-08T13:50:36.755Z,37.70
2022-08-08T13:55:36.635Z,38.00
2022-08-08T14:00:44.988Z,38.50
2022-08-08T14:06:01.133Z,38.80
2022-08-08T14:11:06.784Z,39.20
2022-08-08T14:16:16.481Z,39.70
2022-08-08T14:21:20.729Z,40.20
2022-08-08T14:26:28.297Z,40.50
2022-08-08T14:32:05.853Z,41.00
2022-08-08T14:36:54.325Z,41.70
2022-08-08T14:42:03.451Z,42.30
2022-08-08T14:47:21.258Z,42.80
2022-08-08T14:52:24.221Z,43.50
2022-08-08T14:58:03.394Z,44.10
2022-08-08T15:02:58.566Z,44.80
2022-08-08T15:08:04.098Z,45.30
2022-08-08T15:13:13.344Z,45.90
2022-08-08T15:18:15.824Z,46.40
2022-08-08T15:23:22.830Z,46.70
2022-08-08T15:28:35.238Z,47.20
2022-08-08T15:33:58.437Z,47.60
2022-08-08T15:39:01.148Z,47.80
2022-08-08T15:44:03.999Z,48.00
2022-08-08T15:49:06.202Z,48.30
2022-08-08T15:54:18.646Z,48.50
2022-08-08T16:00:05.258Z,48.60
2022-08-08T16:04:54.762Z,48.80
2022-08-08T16:13:03.640Z,48.90
2022-08-08T16:15:23.946Z,49.00
2022-08-08T16:20:29.098Z,49.20
2022-08-08T16:25:52.518Z,49.20
2022-08-08T16:30:55.927Z,49.30
2022-08-08T16:36:00.765Z,49.40
2022-08-08T16:41:09.635Z,49.10
2022-08-08T16:46:44.009Z,48.00
2022-08-08T16:55:01.176Z,46.40
2022-08-08T16:57:22.629Z,44.60
2022-08-08T17:02:42.844Z,43.10
2022-08-08T17:07:51.195Z,41.60
2022-08-08T17:12:53.889Z,40.40
2022-08-08T17:18:03.114Z,39.50
2022-08-08T17:23:17.842Z,38.70
2022-08-08T17:28:34.618Z,37.50
2022-08-08T17:34:49.687Z,37.20
2022-08-08T17:39:05.064Z,36.70
2022-08-08T17:44:22.610Z,36.30
2022-08-08T17:49:42.739Z,35.90
2022-08-08T17:54:46.390Z,35.50
2022-08-08T17:59:48.679Z,35.10
2022-08-08T18:05:04.525Z,34.70
2022-08-08T18:10:08.168Z,34.40
2022-08-08T18:15:12.126Z,34.00
2022-08-08T18:20:36.647Z,33.70
2022-08-08T18:25:37.776Z,33.40
2022-08-08T18:30:44.413Z,33.00
2022-08-08T18:35:50.926Z,32.70
2022-08-08T18:40:54.896Z,32.50
2022-08-08T18:46:56.601Z,32.10
2022-08-08T18:51:48.679Z,31.80
2022-08-08T18:56:44.137Z,31.50
2022-08-08T19:02:28.021Z,31.20
2022-08-08T19:07:08.786Z,30.90
2022-08-08T19:12:13.442Z,30.50
2022-08-08T19:17:28.816Z,30.20
2022-08-08T19:22:38.858Z,30.00
2022-08-08T19:27:56.146Z,29.60
2022-08-08T19:33:01.769Z,29.30
2022-08-08T19:38:04.032Z,29.00
2022-08-08T19:43:11.548Z,28.80
2022-08-08T19:48:29.160Z,28.50
2022-08-08T19:53:51.804Z,28.10
2022-08-08T19:58:55.981Z,27.80
2022-08-08T20:04:00.263Z,27.70
2022-08-08T20:09:09.062Z,27.50
2022-08-08T20:14:32.091Z,27.30
2022-08-08T20:19:42.003Z,27.00
2022-08-08T20:24:45.626Z,26.80
2022-08-08T20:29:55.624Z,26.60
2022-08-08T20:35:04.001Z,26.40
2022-08-08T20:40:08.298Z,26.30
2022-08-08T20:45:10.828Z,26.00
2022-08-08T20:50:15.411Z,25.70
2022-08-08T20:55:22.884Z,25.60
2022-08-08T21:00:28.536Z,25.60
2022-08-08T21:05:32.772Z,25.50
2022-08-08T21:10:52.254Z,25.30
2022-08-08T21:16:05.204Z,25.30
2022-08-08T21:21:20.529Z,24.60
2022-08-08T21:26:41.894Z,24.80
2022-08-08T21:31:53.206Z,24.60
2022-08-08T21:37:11.128Z,24.40
2022-08-08T21:42:13.899Z,24.20
2022-08-08T21:48:06.844Z,24.20
2022-08-08T21:54:35.076Z,23.90
2022-08-08T21:58:04.253Z,23.90
2022-08-08T22:03:08.261Z,23.80
2022-08-08T22:08:13.631Z,23.70
2022-08-08T22:13:21.465Z,23.60
2022-08-08T22:18:24.745Z,23.40
2022-08-08T22:23:29.757Z,23.40
2022-08-08T22:29:05.103Z,23.30
2022-08-08T22:34:13.039Z,23.10
2022-08-08T22:44:22.202Z,23.00
2022-08-08T22:49:26.561Z,22.80
2022-08-08T22:54:53.644Z,23.10
2022-08-08T22:59:59.335Z,22.70
2022-08-08T23:05:05.221Z,22.80
2022-08-08T23:10:10.680Z,22.70
2022-08-08T23:16:41.663Z,22.70
2022-08-08T23:20:38.145Z,22.60
2022-08-08T23:25:45.246Z,22.30
2022-08-08T23:30:51.160Z,22.40
2022-08-08T23:36:06.603Z,22.30
2022-08-08T23:41:20.128Z,22.10
2022-08-08T23:49:02.099Z,22.10
2022-08-08T23:52:05.016Z,22.00
2022-08-08T23:57:25.436Z,21.50
